createdAt,value
2022-09-28T00:04:12.383Z,93.40
2022-09-28T00:09:04.357Z,93.01
2022-09-28T00:14:02.487Z,93.17
2022-09-28T00:18:54.381Z,93.05
2022-09-28T00:24:05.152Z,93.96
2022-09-28T00:28:59.237Z,93.80
2022-09-28T00:33:52.198Z,94.26
2022-09-28T00:38:43.858Z,94.92
2022-09-28T00:43:35.433Z,95.33
2022-09-28T00:48:29.329Z,95.15
2022-09-28T00:53:28.121Z,95.58
2022-09-28T00:58:30.337Z,95.34
2022-09-28T01:03:22.130Z,94.94
2022-09-28T01:08:14.649Z,95.01
2022-09-28T01:13:06.521Z,94.36
2022-09-28T01:18:11.801Z,93.70
2022-09-28T01:23:15.330Z,93.84
2022-09-28T01:28:14.356Z,94.02
2022-09-28T01:33:11.966Z,93.96
2022-09-28T01:38:11.981Z,94.15
2022-09-28T01:43:10.933Z,93.31
2022-09-28T01:48:07.121Z,93.80
2022-09-28T01:53:12.675Z,94.18
2022-09-28T01:58:24.949Z,95.04
2022-09-28T02:03:24.093Z,95.08
2022-09-28T02:08:21.589Z,95.41
2022-09-28T02:13:29.967Z,95.44
2022-09-28T02:18:21.630Z,95.36
2022-09-28T02:23:14.086Z,95.33
2022-09-28T02:28:15.635Z,95.50
2022-09-28T02:33:21.190Z,95.10
2022-09-28T02:38:14.360Z,94.94
2022-09-28T02:43:12.446Z,95.10
2022-09-28T02:48:43.217Z,94.85
2022-09-28T02:53:57.695Z,94.79
2022-09-28T02:58:59.549Z,94.70
2022-09-28T03:04:01.677Z,94.56
2022-09-28T03:09:00.942Z,94.19
2022-09-28T03:13:53.987Z,94.56
2022-09-28T03:18:46.577Z,95.12
2022-09-28T03:23:38.469Z,95.33
2022-09-28T03:28:30.236Z,95.45
2022-09-28T03:33:22.544Z,95.34
2022-09-28T03:38:14.709Z,94.72
2022-09-28T03:43:06.466Z,94.79
2022-09-28T03:47:58.122Z,94.24
2022-09-28T03:52:49.766Z,94.11
2022-09-28T03:57:41.482Z,93.83
2022-09-28T04:02:34.862Z,94.87
2022-09-28T04:07:30.757Z,95.06
2022-09-28T04:12:22.789Z,95.36
2022-09-28T04:17:14.503Z,95.46
2022-09-28T04:22:06.134Z,95.61
2022-09-28T04:27:17.748Z,96.01
2022-09-28T04:32:10.425Z,95.99
2022-09-28T04:37:02.049Z,96.34
2022-09-28T04:41:53.688Z,96.99
2022-09-28T04:46:45.378Z,97.95
2022-09-28T04:51:37.049Z,98.27
2022-09-28T04:56:28.705Z,98.77
2022-09-28T05:01:23.860Z,99.02
2022-09-28T05:06:16.145Z,99.10
2022-09-28T05:11:11.079Z,99.09
2022-09-28T05:16:05.423Z,99.24
2022-09-28T05:20:57.465Z,99.73
2022-09-28T05:25:49.158Z,99.73
2022-09-28T05:30:40.758Z,99.73
2022-09-28T05:35:32.559Z,99.19
2022-09-28T05:40:24.371Z,99.24
2022-09-28T05:45:16.071Z,99.35
2022-09-28T05:50:11.697Z,99.08
2022-09-28T05:55:03.799Z,98.39
2022-09-28T05:59:55.501Z,99.36
2022-09-28T06:04:49.509Z,98.30
2022-09-28T06:09:41.271Z,97.94
2022-09-28T06:14:32.891Z,98.31
2022-09-28T06:19:24.607Z,98.26
2022-09-28T06:24:16.305Z,97.50
2022-09-28T06:29:08.074Z,96.72
2022-09-28T06:34:02.087Z,96.63
2022-09-28T06:38:53.729Z,95.84
2022-09-28T06:43:46.480Z,95.64
2022-09-28T06:48:38.178Z,95.42
2022-09-28T06:53:29.836Z,95.06
2022-09-28T06:58:23.063Z,95.20
2022-09-28T07:03:25.639Z,94.83
2022-09-28T07:08:18.217Z,95.99
2022-09-28T07:13:25.872Z,100.00
2022-09-28T07:18:23.038Z,100.00
2022-09-28T07:28:12.198Z,91.86
2022-09-28T07:33:06.245Z,83.02
2022-09-28T07:38:16.108Z,83.58
2022-09-28T07:43:07.854Z,82.27
2022-09-28T07:47:59.718Z,74.86
2022-09-28T07:52:51.429Z,69.65
2022-09-28T07:57:44.502Z,68.38
2022-09-28T08:02:37.620Z,66.56
2022-09-28T08:07:29.442Z,64.72
2022-09-28T08:12:21.406Z,61.86
2022-09-28T08:17:13.196Z,60.03
2022-09-28T08:22:05.109Z,57.55
2022-09-28T08:26:57.136Z,55.70
2022-09-28T08:31:48.813Z,55.90
2022-09-28T08:36:40.429Z,54.45
2022-09-28T08:41:49.584Z,52.90
2022-09-28T08:46:47.800Z,52.79
2022-09-28T08:51:44.865Z,51.70
2022-09-28T08:57:00.033Z,49.56
2022-09-28T09:02:04.255Z,50.44
2022-09-28T09:07:18.074Z,48.34
2022-09-28T09:12:34.959Z,47.84
2022-09-28T09:18:01.981Z,46.50
2022-09-28T09:22:53.564Z,46.30
2022-09-28T09:28:03.204Z,45.64
2022-09-28T09:33:04.835Z,44.61
2022-09-28T09:38:19.470Z,46.45
2022-09-28T09:43:47.269Z,44.05
2022-09-28T09:48:55.344Z,43.97
2022-09-28T09:54:00.173Z,45.12
2022-09-28T09:58:57.518Z,42.11
2022-09-28T10:03:49.820Z,42.95
2022-09-28T10:08:46.212Z,42.78
2022-09-28T10:13:38.405Z,43.26
2022-09-28T10:18:30.067Z,40.27
2022-09-28T10:23:26.858Z,41.98
2022-09-28T10:28:51.442Z,41.56
2022-09-28T10:33:43.114Z,41.21
2022-09-28T10:38:35.370Z,40.94
2022-09-28T10:43:38.612Z,44.62
2022-09-28T10:48:39.404Z,41.99
2022-09-28T10:53:31.873Z,41.86
2022-09-28T10:58:36.135Z,40.03
2022-09-28T11:03:29.782Z,40.78
2022-09-28T11:08:27.905Z,41.33
2022-09-28T11:13:19.652Z,44.57
2022-09-28T11:18:31.400Z,43.51
2022-09-28T11:23:31.849Z,43.58
2022-09-28T11:28:31.486Z,41.82
2022-09-28T11:33:40.000Z,41.64
2022-09-28T11:38:34.124Z,41.60
2022-09-28T11:43:41.171Z,41.06
2022-09-28T11:48:47.596Z,44.52
2022-09-28T11:53:45.303Z,41.39
2022-09-28T11:59:00.718Z,42.47
2022-09-28T12:04:01.821Z,45.02
2022-09-28T12:09:00.858Z,45.08
2022-09-28T12:13:54.550Z,43.24
2022-09-28T12:18:55.025Z,44.59
2022-09-28T12:23:48.786Z,41.24
2022-09-28T12:28:47.794Z,42.71
2022-09-28T12:33:48.055Z,45.39
2022-09-28T12:39:21.748Z,42.92
2022-09-28T12:45:13.493Z,41.32
2022-09-28T12:50:39.521Z,42.51
2022-09-28T12:55:44.410Z,44.23
2022-09-28T13:01:03.817Z,43.70
2022-09-28T13:06:26.873Z,44.10
2022-09-28T13:11:38.336Z,45.00
2022-09-28T13:16:49.501Z,43.87
2022-09-28T13:21:44.540Z,44.13
2022-09-28T13:26:44.913Z,42.64
2022-09-28T13:31:45.846Z,42.67
2022-09-28T13:36:39.123Z,43.52
2022-09-28T13:41:40.445Z,44.83
2022-09-28T13:47:20.733Z,45.72
2022-09-28T13:52:31.072Z,44.66
2022-09-28T13:57:44.186Z,44.63
2022-09-28T14:02:42.380Z,43.48
2022-09-28T14:07:34.036Z,45.04
2022-09-28T14:12:34.870Z,46.18
2022-09-28T14:17:29.396Z,45.71
2022-09-28T14:22:36.251Z,45.63
2022-09-28T14:27:46.250Z,45.76
2022-09-28T14:32:40.248Z,45.58
2022-09-28T14:37:58.121Z,47.41
2022-09-28T14:43:26.981Z,46.60
2022-09-28T14:48:21.002Z,45.78
2022-09-28T14:53:19.619Z,46.28
2022-09-28T14:58:19.573Z,47.41
2022-09-28T15:03:12.985Z,48.05
2022-09-28T15:08:05.445Z,48.22
2022-09-28T15:13:01.325Z,48.85
2022-09-28T15:18:16.677Z,50.21
2022-09-28T15:23:28.137Z,50.18
2022-09-28T15:28:22.266Z,49.90
2022-09-28T15:33:52.775Z,50.68
2022-09-28T15:39:06.622Z,50.67
2022-09-28T15:44:22.290Z,50.79
2022-09-28T15:49:26.085Z,50.15
2022-09-28T15:54:23.880Z,50.34
2022-09-28T15:59:15.446Z,51.09
2022-09-28T16:04:54.158Z,52.17
2022-09-28T16:10:11.943Z,52.74
2022-09-28T16:15:14.898Z,52.18
2022-09-28T16:20:30.034Z,52.36
2022-09-28T16:25:25.647Z,53.38
2022-09-28T16:30:27.525Z,54.11
2022-09-28T16:35:29.983Z,54.68
2022-09-28T16:40:21.887Z,54.53
2022-09-28T16:45:19.880Z,54.18
2022-09-28T16:50:14.797Z,54.37
2022-09-28T16:55:39.648Z,55.60
2022-09-28T17:00:29.712Z,55.97
2022-09-28T17:05:21.646Z,56.19
2022-09-28T17:10:28.989Z,57.15
2022-09-28T17:15:20.614Z,58.07
2022-09-28T17:20:32.175Z,58.70
2022-09-28T17:25:25.995Z,58.63
2022-09-28T17:30:20.250Z,59.55
2022-09-28T17:35:24.700Z,59.64
2022-09-28T17:40:28.378Z,60.46
2022-09-28T17:45:20.145Z,61.07
2022-09-28T17:50:22.009Z,61.49
2022-09-28T17:55:13.955Z,61.94
2022-09-28T18:00:06.043Z,62.60
2022-09-28T18:04:57.952Z,62.76
2022-09-28T18:09:56.739Z,63.18
2022-09-28T18:14:48.352Z,64.11
2022-09-28T18:19:40.186Z,63.90
2022-09-28T18:24:32.606Z,64.33
2022-09-28T18:29:24.467Z,64.83
2022-09-28T18:34:16.371Z,65.18
2022-09-28T18:39:08.087Z,65.44
2022-09-28T18:44:02.455Z,65.75
2022-09-28T18:48:57.311Z,65.72
2022-09-28T18:53:49.224Z,65.45
2022-09-28T18:58:42.306Z,65.86
2022-09-28T19:03:34.312Z,65.45
2022-09-28T19:08:27.763Z,65.57
2022-09-28T19:13:19.595Z,65.63
2022-09-28T19:18:11.343Z,65.50
2022-09-28T19:23:04.086Z,65.61
2022-09-28T19:27:55.705Z,65.60
2022-09-28T19:32:47.435Z,65.87
2022-09-28T19:37:39.411Z,65.33
2022-09-28T19:42:31.064Z,65.98
2022-09-28T19:47:23.216Z,66.89
2022-09-28T19:52:17.799Z,67.32
2022-09-28T19:57:11.192Z,67.74
2022-09-28T20:02:03.469Z,68.31
2022-09-28T20:06:55.221Z,68.49
2022-09-28T20:11:47.031Z,68.74
2022-09-28T20:16:39.520Z,68.78
2022-09-28T20:21:31.375Z,69.15
2022-09-28T20:26:24.443Z,69.41
2022-09-28T20:31:20.198Z,70.19
2022-09-28T20:36:14.318Z,70.57
2022-09-28T20:41:18.010Z,71.55
2022-09-28T20:46:13.533Z,71.80
2022-09-28T20:51:17.380Z,72.11
2022-09-28T20:56:21.088Z,73.18
2022-09-28T21:01:22.207Z,74.09
2022-09-28T21:06:15.274Z,75.61
2022-09-28T21:11:07.506Z,75.81
2022-09-28T21:16:03.725Z,77.28
2022-09-28T21:20:55.471Z,77.77
2022-09-28T21:25:47.116Z,77.42
2022-09-28T21:30:39.748Z,78.40
2022-09-28T21:35:35.296Z,78.28
2022-09-28T21:40:27.425Z,78.97
2022-09-28T21:45:19.412Z,79.60
2022-09-28T21:50:11.267Z,79.87
2022-09-28T21:55:03.564Z,79.47
2022-09-28T21:59:55.278Z,79.90
2022-09-28T22:04:46.982Z,80.02
2022-09-28T22:09:38.770Z,81.01
2022-09-28T22:14:30.433Z,81.62
2022-09-28T22:19:22.149Z,82.35
2022-09-28T22:24:13.808Z,82.35
2022-09-28T22:29:08.600Z,82.92
2022-09-28T22:34:00.435Z,83.37
2022-09-28T22:38:52.749Z,84.08
2022-09-28T22:43:44.365Z,85.21
2022-09-28T22:48:36.273Z,85.24
2022-09-28T22:53:31.408Z,86.19
2022-09-28T22:58:23.935Z,87.29
2022-09-28T23:03:16.514Z,87.68
2022-09-28T23:08:08.244Z,88.86
2022-09-28T23:12:59.844Z,89.43
2022-09-28T23:17:52.783Z,90.74
2022-09-28T23:22:48.547Z,90.15
2022-09-28T23:27:40.532Z,90.38
2022-09-28T23:32:32.297Z,90.80
2022-09-28T23:37:24.004Z,91.42
2022-09-28T23:42:15.624Z,91.43
2022-09-28T23:47:07.514Z,91.66
2022-09-28T23:51:59.153Z,92.81
2022-09-28T23:56:50.810Z,93.15
